createdAt,value
2022-12-01T00:01:23.390Z,103023.41
2022-12-01T00:03:50.513Z,103022.59
2022-12-01T00:06:20.977Z,103014.63
2022-12-01T00:09:11.447Z,103019.97
2022-12-01T00:11:40.174Z,103015.59
2022-12-01T00:14:07.342Z,103012.13
2022-12-01T00:16:35.198Z,103022.69
2022-12-01T00:19:02.726Z,103011.28
2022-12-01T00:21:29.794Z,103020.09
2022-12-01T00:23:58.152Z,103009.59
2022-12-01T00:26:27.356Z,103012.31
2022-12-01T00:28:57.689Z,103020.25
2022-12-01T00:31:25.361Z,103020.22
2022-12-01T00:33:53.122Z,103021.13
2022-12-01T00:36:21.587Z,103023.78
2022-12-01T00:38:52.583Z,103020.25
2022-12-01T00:41:20.851Z,103013.19
2022-12-01T00:43:47.996Z,103015.84
2022-12-01T00:46:15.254Z,103009.78
2022-12-01T00:48:42.325Z,103012.44
2022-12-01T00:51:09.620Z,103008.00
2022-12-01T00:53:36.694Z,103009.78
2022-12-01T00:56:04.283Z,103017.75
2022-12-01T00:58:31.387Z,103013.41
2022-12-01T01:01:02.905Z,103013.41
2022-12-01T01:03:32.047Z,103015.19
2022-12-01T01:06:07.090Z,103020.50
2022-12-01T01:08:34.359Z,103024.00
2022-12-01T01:11:01.854Z,103019.63
2022-12-01T01:13:29.309Z,103030.19
2022-12-01T01:16:22.825Z,103025.84
2022-12-01T01:18:50.324Z,103037.31
2022-12-01T01:21:21.045Z,103030.25
2022-12-01T01:23:49.907Z,103036.38
2022-12-01T01:26:19.494Z,103035.56
2022-12-01T01:28:48.181Z,103033.72
2022-12-01T01:31:20.677Z,103035.53
2022-12-01T01:33:48.713Z,103026.75
2022-12-01T01:36:17.568Z,103031.09
2022-12-01T01:38:45.429Z,103032.97
2022-12-01T01:41:13.025Z,103039.09
2022-12-01T01:43:55.492Z,103032.94
2022-12-01T01:46:31.396Z,103040.94
2022-12-01T01:49:12.207Z,103040.94
2022-12-01T01:51:50.594Z,103036.50
2022-12-01T01:54:36.225Z,103044.47
2022-12-01T01:57:07.753Z,103044.47
2022-12-01T01:59:43.866Z,103036.56
2022-12-01T02:02:13.173Z,103038.31
2022-12-01T02:04:46.202Z,103042.72
2022-12-01T02:07:17.980Z,103037.50
2022-12-01T02:09:46.002Z,103037.53
2022-12-01T02:12:42.846Z,103036.59
2022-12-01T02:15:33.517Z,103033.09
2022-12-01T02:18:07.158Z,103026.03
2022-12-01T02:21:03.663Z,103031.31
2022-12-01T02:23:59.963Z,103026.91
2022-12-01T02:27:08.465Z,103018.97
2022-12-01T02:30:14.882Z,103023.41
2022-12-01T02:33:14.128Z,103026.06
2022-12-01T02:36:12.919Z,103024.25
2022-12-01T02:39:17.745Z,103018.13
2022-12-01T02:41:52.651Z,103018.06
2022-12-01T02:44:35.168Z,103021.63
2022-12-01T02:47:12.879Z,103026.91
2022-12-01T02:49:51.745Z,103026.06
2022-12-01T02:52:20.498Z,103026.88
2022-12-01T02:54:48.600Z,103034.81
2022-12-01T02:57:17.180Z,103028.63
2022-12-01T02:59:51.567Z,103032.03
2022-12-01T03:02:24.655Z,103031.28
2022-12-01T03:04:53.514Z,103033.91
2022-12-01T03:07:51.944Z,103028.69
2022-12-01T03:10:53.533Z,103026.00
2022-12-01T03:13:53.839Z,103033.00
2022-12-01T03:16:31.064Z,103034.81
2022-12-01T03:19:14.404Z,103036.50
2022-12-01T03:22:08.591Z,103032.16
2022-12-01T03:24:37.002Z,103026.03
2022-12-01T03:27:05.806Z,103036.56
2022-12-01T03:29:43.135Z,103026.84
2022-12-01T03:32:26.080Z,103033.03
2022-12-01T03:35:21.414Z,103029.53
2022-12-01T03:37:56.067Z,103031.28
2022-12-01T03:40:27.217Z,103021.56
2022-12-01T03:43:00.178Z,103027.75
2022-12-01T03:45:39.948Z,103033.91
2022-12-01T03:48:07.917Z,103033.00
2022-12-01T03:50:56.799Z,103032.03
2022-12-01T03:53:28.573Z,103039.09
2022-12-01T03:56:05.832Z,103040.00
2022-12-01T03:58:43.065Z,103028.56
2022-12-01T04:01:10.418Z,103029.41
2022-12-01T04:03:37.519Z,103028.44
2022-12-01T04:06:05.155Z,103038.16
2022-12-01T04:08:33.699Z,103037.16
2022-12-01T04:11:00.750Z,103037.19
2022-12-01T04:13:27.835Z,103026.56
2022-12-01T04:15:55.891Z,103032.75
2022-12-01T04:18:23.050Z,103034.50
2022-12-01T04:20:50.921Z,103037.06
2022-12-01T04:23:36.560Z,103038.78
2022-12-01T04:26:05.729Z,103037.03
2022-12-01T04:28:32.773Z,103036.19
2022-12-01T04:30:59.950Z,103033.47
2022-12-01T04:33:27.094Z,103038.81
2022-12-01T04:35:59.380Z,103045.75
2022-12-01T04:38:30.786Z,103044.91
2022-12-01T04:40:58.317Z,103045.78
2022-12-01T04:43:25.469Z,103038.69
2022-12-01T04:45:52.515Z,103041.31
2022-12-01T04:48:19.542Z,103045.72
2022-12-01T04:50:49.729Z,103038.69
2022-12-01T04:53:16.796Z,103045.75
2022-12-01T04:55:43.899Z,103040.44
2022-12-01T04:58:11.018Z,103039.63
2022-12-01T05:00:38.225Z,103031.66
2022-12-01T05:03:07.657Z,103034.25
2022-12-01T05:05:36.694Z,103037.03
2022-12-01T05:08:04.153Z,103045.78
2022-12-01T05:10:31.434Z,103042.19
2022-12-01T05:12:58.692Z,103037.75
2022-12-01T05:15:25.767Z,103045.72
2022-12-01T05:17:52.798Z,103043.97
2022-12-01T05:20:44.342Z,103046.34
2022-12-01T05:23:16.533Z,103042.81
2022-12-01T05:25:44.207Z,103043.56
2022-12-01T05:28:11.478Z,103046.13
2022-12-01T05:30:38.582Z,103057.53
2022-12-01T05:33:05.702Z,103054.00
2022-12-01T05:35:35.624Z,103062.69
2022-12-01T05:38:07.607Z,103056.50
2022-12-01T05:40:36.779Z,103062.53
2022-12-01T05:43:04.392Z,103053.75
2022-12-01T05:45:32.087Z,103049.38
2022-12-01T05:48:00.903Z,103052.03
2022-12-01T05:50:30.157Z,103048.63
2022-12-01T05:52:57.461Z,103054.75
2022-12-01T05:55:24.593Z,103054.78
2022-12-01T05:57:51.732Z,103052.19
2022-12-01T06:00:19.423Z,103052.25
2022-12-01T06:02:46.550Z,103045.22
2022-12-01T06:05:13.638Z,103047.81
2022-12-01T06:07:40.880Z,103042.38
2022-12-01T06:10:09.840Z,103042.44
2022-12-01T06:12:37.732Z,103039.69
2022-12-01T06:15:06.693Z,103044.00
2022-12-01T06:17:39.779Z,103048.25
2022-12-01T06:20:09.270Z,103053.34
2022-12-01T06:22:36.316Z,103051.38
2022-12-01T06:25:03.887Z,103053.81
2022-12-01T06:27:30.982Z,103062.38
2022-12-01T06:29:58.097Z,103056.91
2022-12-01T06:32:25.191Z,103067.34
2022-12-01T06:34:52.362Z,103058.41
2022-12-01T06:37:19.414Z,103060.84
2022-12-01T06:39:46.686Z,103058.13
2022-12-01T06:42:13.943Z,103062.38
2022-12-01T06:44:41.009Z,103070.19
2022-12-01T06:47:08.157Z,103066.53
2022-12-01T06:49:35.732Z,103064.66
2022-12-01T06:52:02.915Z,103064.50
2022-12-01T06:54:30.070Z,103067.06
2022-12-01T06:56:58.413Z,103069.56
2022-12-01T06:59:25.989Z,103065.91
2022-12-01T07:01:53.492Z,103084.19
2022-12-01T07:04:20.954Z,103083.25
2022-12-01T07:06:48.031Z,103079.66
2022-12-01T07:09:15.179Z,103084.75
2022-12-01T07:11:42.358Z,103085.66
2022-12-01T07:14:22.432Z,103089.91
2022-12-01T07:16:49.613Z,103093.34
2022-12-01T07:19:16.778Z,103085.28
2022-12-01T07:21:43.896Z,103090.44
2022-12-01T07:24:12.575Z,103112.19
2022-12-01T07:26:41.068Z,103112.09
2022-12-01T07:29:09.288Z,103111.16
2022-12-01T07:31:37.558Z,103115.44
2022-12-01T07:34:05.816Z,103120.63
2022-12-01T07:36:33.006Z,103122.44
2022-12-01T07:39:00.343Z,103125.97
2022-12-01T07:41:27.439Z,103122.44
2022-12-01T07:43:55.760Z,103127.72
2022-12-01T07:46:26.947Z,103129.50
2022-12-01T07:48:55.599Z,103126.09
2022-12-01T07:51:24.712Z,103120.94
2022-12-01T07:53:53.279Z,103126.31
2022-12-01T07:56:27.137Z,103136.00
2022-12-01T07:58:54.585Z,103134.44
2022-12-01T08:01:24.646Z,103131.13
2022-12-01T08:03:55.379Z,103134.72
2022-12-01T08:06:23.984Z,103140.16
2022-12-01T08:08:51.559Z,103135.94
2022-12-01T08:11:29.370Z,103141.38
2022-12-01T08:13:56.511Z,103133.69
2022-12-01T08:16:25.018Z,103140.84
2022-12-01T08:18:52.454Z,103144.50
2022-12-01T08:21:22.093Z,103141.19
2022-12-01T08:23:53.234Z,103137.81
2022-12-01T08:26:21.149Z,103146.78
2022-12-01T08:28:49.054Z,103147.84
2022-12-01T08:31:30.121Z,103145.38
2022-12-01T08:33:58.146Z,103141.97
2022-12-01T08:36:26.083Z,103152.69
2022-12-01T08:38:55.578Z,103156.34
2022-12-01T08:41:24.576Z,103158.25
2022-12-01T08:44:00.104Z,103153.09
2022-12-01T08:46:33.130Z,103151.50
2022-12-01T08:49:01.273Z,103149.84
2022-12-01T08:51:28.778Z,103149.94
2022-12-01T08:53:57.921Z,103150.09
2022-12-01T08:56:34.876Z,103155.47
2022-12-01T08:59:02.330Z,103154.69
2022-12-01T09:01:29.874Z,103156.53
2022-12-01T09:04:08.784Z,103150.50
2022-12-01T09:06:42.737Z,103152.31
2022-12-01T09:09:13.134Z,103150.72
2022-12-01T09:11:41.236Z,103147.25
2022-12-01T09:14:08.340Z,103147.44
2022-12-01T09:16:35.487Z,103143.16
2022-12-01T09:19:03.292Z,103149.50
2022-12-01T09:21:32.619Z,103144.44
2022-12-01T09:24:01.353Z,103149.88
2022-12-01T09:26:29.043Z,103151.78
2022-12-01T09:29:00.654Z,103146.78
2022-12-01T09:31:28.018Z,103153.03
2022-12-01T09:33:57.720Z,103151.63
2022-12-01T09:36:25.354Z,103147.63
2022-12-01T09:38:52.731Z,103143.72
2022-12-01T09:41:53.526Z,103144.25
2022-12-01T09:44:42.714Z,103144.66
2022-12-01T09:47:20.229Z,103141.34
2022-12-01T09:49:56.702Z,103131.66
2022-12-01T09:52:26.584Z,103131.09
2022-12-01T09:54:55.844Z,103126.75
2022-12-01T09:57:38.362Z,103114.47
2022-12-01T10:00:20.210Z,103114.91
2022-12-01T10:03:02.939Z,103110.75
2022-12-01T10:06:18.047Z,103110.00
2022-12-01T10:08:37.427Z,103106.69
2022-12-01T10:11:31.615Z,103103.41
2022-12-01T10:13:59.963Z,103101.19
2022-12-01T10:16:49.206Z,103112.69
2022-12-01T10:19:29.390Z,103110.00
2022-12-01T10:22:18.340Z,103122.09
2022-12-01T10:25:07.107Z,103111.31
2022-12-01T10:27:49.229Z,103117.13
2022-12-01T10:30:20.087Z,103116.91
2022-12-01T10:33:17.762Z,103118.16
2022-12-01T10:35:44.904Z,103119.75
2022-12-01T10:38:24.410Z,103112.34
2022-12-01T10:40:53.350Z,103110.63
2022-12-01T10:43:39.918Z,103119.53
2022-12-01T10:46:16.042Z,103115.81
2022-12-01T10:48:58.827Z,103117.59
2022-12-01T10:51:27.881Z,103113.22
2022-12-01T10:54:11.544Z,103115.78
2022-12-01T10:56:41.817Z,103116.78
2022-12-01T10:59:23.711Z,103117.94
2022-12-01T11:01:51.124Z,103114.63
2022-12-01T11:04:46.511Z,103108.28
2022-12-01T11:07:25.925Z,103102.34
2022-12-01T11:10:36.689Z,103108.59
2022-12-01T11:13:21.238Z,103099.72
2022-12-01T11:16:01.690Z,103099.88
2022-12-01T11:18:33.434Z,103099.59
2022-12-01T11:21:26.349Z,103094.72
2022-12-01T11:23:56.043Z,103098.94
2022-12-01T11:26:32.521Z,103097.34
2022-12-01T11:29:05.048Z,103089.28
2022-12-01T11:31:43.923Z,103089.88
2022-12-01T11:34:31.479Z,103083.72
2022-12-01T11:37:06.831Z,103081.75
2022-12-01T11:39:41.439Z,103077.09
2022-12-01T11:42:14.478Z,103076.09
2022-12-01T11:44:52.513Z,103078.81
2022-12-01T11:47:24.796Z,103072.75
2022-12-01T11:49:59.815Z,103077.22
2022-12-01T11:52:36.902Z,103066.66
2022-12-01T11:55:23.935Z,103064.19
2022-12-01T11:57:54.996Z,103059.91
2022-12-01T12:00:26.792Z,103056.53
2022-12-01T12:03:26.424Z,103058.94
2022-12-01T12:09:44.910Z,103048.34
2022-12-01T12:12:55.731Z,103049.91
2022-12-01T12:15:58.241Z,103052.50
2022-12-01T12:19:33.819Z,103050.75
2022-12-01T12:22:27.828Z,103042.66
2022-12-01T12:25:41.751Z,103046.91
2022-12-01T12:29:09.366Z,103052.13
2022-12-01T12:31:59.399Z,103045.03
2022-12-01T12:34:51.067Z,103045.94
2022-12-01T12:37:42.282Z,103042.47
2022-12-01T12:40:54.173Z,103044.31
2022-12-01T12:43:51.038Z,103040.75
2022-12-01T12:46:55.574Z,103047.78
2022-12-01T12:49:54.105Z,103035.38
2022-12-01T12:52:33.128Z,103037.09
2022-12-01T12:55:12.276Z,103034.47
2022-12-01T12:57:52.340Z,103028.34
2022-12-01T13:00:25.535Z,103025.66
2022-12-01T13:03:34.516Z,103025.63
2022-12-01T13:06:12.093Z,103021.25
2022-12-01T13:08:48.984Z,103027.34
2022-12-01T13:11:32.995Z,103026.44
2022-12-01T13:14:24.522Z,103023.75
2022-12-01T13:16:58.138Z,103027.16
2022-12-01T13:19:36.542Z,103026.25
2022-12-01T13:22:07.245Z,103021.84
2022-12-01T13:24:34.656Z,103023.63
2022-12-01T13:27:11.989Z,103022.78
2022-12-01T13:29:46.678Z,103029.75
2022-12-01T13:32:37.519Z,103027.94
2022-12-01T13:35:21.102Z,103021.72
2022-12-01T13:37:48.538Z,103025.09
2022-12-01T13:40:31.581Z,103016.25
2022-12-01T13:43:10.260Z,103013.59
2022-12-01T13:45:40.643Z,103008.31
2022-12-01T13:48:46.589Z,103018.78
2022-12-01T13:51:13.746Z,103016.09
2022-12-01T13:53:57.738Z,103015.19
2022-12-01T13:56:39.722Z,103019.53
2022-12-01T14:00:23.866Z,103011.53
2022-12-01T14:03:12.868Z,103011.38
2022-12-01T14:05:39.919Z,103005.16
2022-12-01T14:08:46.223Z,103004.22
2022-12-01T14:11:23.903Z,102997.06
2022-12-01T14:13:57.213Z,102994.34
2022-12-01T14:16:25.184Z,102990.81
2022-12-01T14:18:57.109Z,102988.22
2022-12-01T14:21:47.663Z,102990.03
2022-12-01T14:24:35.327Z,102992.59
2022-12-01T14:27:04.678Z,102994.22
2022-12-01T14:29:42.999Z,102989.78
2022-12-01T14:32:21.806Z,102995.03
2022-12-01T14:34:52.755Z,102987.84
2022-12-01T14:37:25.061Z,102996.59
2022-12-01T14:40:13.794Z,103002.72
2022-12-01T14:43:03.286Z,102999.03
2022-12-01T14:45:50.848Z,102997.25
2022-12-01T14:48:27.005Z,103009.53
2022-12-01T14:51:26.514Z,103008.63
2022-12-01T14:53:56.244Z,103014.66
2022-12-01T14:56:25.297Z,103007.59
2022-12-01T14:58:59.806Z,103006.66
2022-12-01T15:01:35.172Z,103003.06
2022-12-01T15:04:05.330Z,103004.72
2022-12-01T15:06:35.448Z,103004.63
2022-12-01T15:09:35.373Z,103006.28
2022-12-01T15:12:09.229Z,103011.53
2022-12-01T15:14:49.746Z,103007.91
2022-12-01T15:17:30.310Z,103006.97
2022-12-01T15:19:58.064Z,102994.56
2022-12-01T15:22:31.383Z,102995.38
2022-12-01T15:25:35.111Z,102991.81
2022-12-01T15:28:19.284Z,102996.97
2022-12-01T15:30:51.825Z,103003.00
2022-12-01T15:33:35.426Z,102996.75
2022-12-01T15:36:05.495Z,103000.09
2022-12-01T15:38:36.051Z,103007.06
2022-12-01T15:43:58.917Z,103013.00
2022-12-01T15:46:34.679Z,103012.00
2022-12-01T15:49:16.519Z,103018.00
2022-12-01T15:51:44.566Z,103019.63
2022-12-01T15:54:24.781Z,103018.59
2022-12-01T15:56:55.624Z,103026.38
2022-12-01T15:59:40.903Z,103026.22
2022-12-01T16:02:28.532Z,103024.31
2022-12-01T16:05:16.347Z,103032.09
2022-12-01T16:08:11.955Z,103020.50
2022-12-01T16:10:37.234Z,103028.22
2022-12-01T16:14:00.036Z,103028.94
2022-12-01T16:16:41.778Z,103034.97
2022-12-01T16:19:08.830Z,103032.16
2022-12-01T16:21:53.926Z,103033.81
2022-12-01T16:24:35.841Z,103036.25
2022-12-01T16:27:07.886Z,103039.63
2022-12-01T16:30:18.685Z,103031.56
2022-12-01T16:32:45.842Z,103034.06
2022-12-01T16:35:31.340Z,103034.91
2022-12-01T16:37:59.621Z,103034.97
2022-12-01T16:40:27.369Z,103032.31
2022-12-01T16:42:54.422Z,103034.06
2022-12-01T16:45:21.558Z,103032.31
2022-12-01T16:47:49.548Z,103034.97
2022-12-01T16:50:20.083Z,103033.09
2022-12-01T16:52:47.834Z,103024.22
2022-12-01T16:55:30.721Z,103030.25
2022-12-01T16:57:57.845Z,103025.78
2022-12-01T17:00:25.724Z,103024.69
2022-12-01T17:02:53.105Z,103017.59
2022-12-01T17:05:20.566Z,103024.44
2022-12-01T17:07:48.327Z,103025.25
2022-12-01T17:10:16.032Z,103019.00
2022-12-01T17:12:43.338Z,103017.97
2022-12-01T17:15:11.525Z,103024.91
2022-12-01T17:17:38.624Z,103024.75
2022-12-01T17:20:07.855Z,103029.06
2022-12-01T17:22:35.206Z,103027.16
2022-12-01T17:25:02.472Z,103028.84
2022-12-01T17:27:31.493Z,103027.84
2022-12-01T17:29:59.258Z,103024.25
2022-12-01T17:32:27.751Z,103027.63
2022-12-01T17:34:55.054Z,103021.34
2022-12-01T17:37:22.144Z,103022.16
2022-12-01T17:39:50.299Z,103023.81
2022-12-01T17:42:17.410Z,103025.44
2022-12-01T17:44:44.581Z,103026.19
2022-12-01T17:47:12.584Z,103021.75
2022-12-01T17:49:39.741Z,103019.91
2022-12-01T17:52:08.152Z,103029.53
2022-12-01T17:54:35.260Z,103023.25
2022-12-01T17:57:02.376Z,103024.97
2022-12-01T17:59:29.496Z,103028.41
2022-12-01T18:01:56.624Z,103024.81
2022-12-01T18:04:23.756Z,103023.81
2022-12-01T18:06:54.242Z,103027.25
2022-12-01T18:09:22.344Z,103028.00
2022-12-01T18:11:49.744Z,103020.88
2022-12-01T18:14:17.728Z,103020.00
2022-12-01T18:16:45.807Z,103018.16
2022-12-01T18:19:13.182Z,103019.00
2022-12-01T18:21:40.836Z,103023.28
2022-12-01T18:24:09.214Z,103026.75
2022-12-01T18:26:39.842Z,103023.28
2022-12-01T18:29:25.692Z,103022.22
2022-12-01T18:31:57.017Z,103027.56
2022-12-01T18:34:24.556Z,103021.47
2022-12-01T18:36:51.733Z,103021.47
2022-12-01T18:39:19.140Z,103017.91
2022-12-01T18:41:46.318Z,103025.84
2022-12-01T18:44:13.542Z,103021.44
2022-12-01T18:46:41.214Z,103021.47
2022-12-01T18:49:09.101Z,103028.47
2022-12-01T18:51:37.763Z,103022.22
2022-12-01T18:54:06.857Z,103029.25
2022-12-01T18:56:34.402Z,103025.78
2022-12-01T18:59:06.760Z,103026.63
2022-12-01T19:01:41.216Z,103030.09
2022-12-01T19:04:09.653Z,103031.00
2022-12-01T19:06:38.827Z,103027.47
2022-12-01T19:09:09.299Z,103030.16
2022-12-01T19:11:36.932Z,103025.78
2022-12-01T19:14:04.200Z,103026.78
2022-12-01T19:16:31.490Z,103034.03
2022-12-01T19:19:00.092Z,103022.69
2022-12-01T19:21:27.162Z,103031.66
2022-12-01T19:23:54.219Z,103020.41
2022-12-01T19:26:22.950Z,103017.09
2022-12-01T19:28:50.504Z,103025.06
2022-12-01T19:31:24.749Z,103020.00
2022-12-01T19:33:53.822Z,103024.50
2022-12-01T19:36:25.258Z,103017.72
2022-12-01T19:38:53.022Z,103021.31
2022-12-01T19:41:25.125Z,103018.00
2022-12-01T19:43:55.565Z,103018.03
2022-12-01T19:46:26.993Z,103015.53
2022-12-01T19:49:00.504Z,103008.69
2022-12-01T19:51:35.477Z,103016.69
2022-12-01T19:54:05.940Z,103014.16
2022-12-01T19:56:33.549Z,103006.31
2022-12-01T19:59:00.704Z,103018.75
2022-12-01T20:01:28.349Z,103017.91
2022-12-01T20:03:55.473Z,103018.91
2022-12-01T20:06:29.689Z,103019.91
2022-12-01T20:09:00.859Z,103016.44
2022-12-01T20:11:29.875Z,103020.03
2022-12-01T20:13:57.036Z,103020.97
2022-12-01T20:16:26.659Z,103020.16
2022-12-01T20:18:54.627Z,103022.00
2022-12-01T20:21:26.051Z,103016.75
2022-12-01T20:24:02.601Z,103008.00
2022-12-01T20:26:38.367Z,103015.06
2022-12-01T20:29:18.378Z,103016.09
2022-12-01T20:31:46.360Z,103009.16
2022-12-01T20:34:18.482Z,103017.09
2022-12-01T20:36:45.893Z,103016.22
2022-12-01T20:39:15.645Z,103013.63
2022-12-01T20:41:44.902Z,103019.88
2022-12-01T20:44:13.714Z,103029.53
2022-12-01T20:46:40.981Z,103030.44
2022-12-01T20:49:08.424Z,103018.19
2022-12-01T20:51:35.570Z,103020.91
2022-12-01T20:54:27.415Z,103018.34
2022-12-01T20:56:52.108Z,103007.81
2022-12-01T20:59:20.365Z,103007.88
2022-12-01T21:01:47.571Z,103008.81
2022-12-01T21:04:14.791Z,103010.56
2022-12-01T21:06:42.216Z,103002.69
2022-12-01T21:09:09.518Z,103001.00
2022-12-01T21:12:08.025Z,103001.00
2022-12-01T21:14:43.255Z,103003.69
2022-12-01T21:17:34.513Z,102998.47
2022-12-01T21:20:26.060Z,102994.94
2022-12-01T21:22:54.516Z,102994.13
2022-12-01T21:25:24.206Z,102994.09
2022-12-01T21:27:52.311Z,102990.72
2022-12-01T21:30:25.686Z,102981.03
2022-12-01T21:32:54.282Z,102981.91
2022-12-01T21:35:26.978Z,102982.88
2022-12-01T21:38:01.901Z,102972.31
2022-12-01T21:40:29.095Z,102980.22
2022-12-01T21:43:09.640Z,102975.00
2022-12-01T21:45:36.807Z,102975.91
2022-12-01T21:48:17.879Z,102976.78
2022-12-01T21:50:50.697Z,102972.41
2022-12-01T21:53:20.975Z,102969.72
2022-12-01T21:55:49.208Z,102976.84
2022-12-01T21:58:34.818Z,102974.16
2022-12-01T22:01:09.511Z,102969.72
2022-12-01T22:03:44.781Z,102972.50
2022-12-01T22:06:32.804Z,102968.97
2022-12-01T22:09:29.719Z,102967.31
2022-12-01T22:12:00.404Z,102963.78
2022-12-01T22:14:35.602Z,102967.34
2022-12-01T22:17:05.682Z,102970.88
2022-12-01T22:19:39.675Z,102961.19
2022-12-01T22:22:09.649Z,102968.22
2022-12-01T22:25:00.118Z,102963.84
2022-12-01T22:27:39.158Z,102959.50
2022-12-01T22:30:06.189Z,102960.47
2022-12-01T22:32:53.084Z,102957.81
2022-12-01T22:35:26.156Z,102960.50
2022-12-01T22:38:36.773Z,102950.91
2022-12-01T22:41:12.378Z,102952.69
2022-12-01T22:43:56.671Z,102957.06
2022-12-01T22:46:25.452Z,102958.84
2022-12-01T22:49:19.358Z,102956.22
2022-12-01T22:52:01.222Z,102957.09
2022-12-01T22:54:52.851Z,102956.22
2022-12-01T22:57:34.824Z,102952.69
2022-12-01T23:00:16.973Z,102952.69
2022-12-01T23:02:44.508Z,102951.78
2022-12-01T23:05:25.195Z,102956.22
2022-12-01T23:07:54.503Z,102954.38
2022-12-01T23:10:29.655Z,102956.22
2022-12-01T23:13:09.542Z,102951.78
2022-12-01T23:15:40.397Z,102950.94
2022-12-01T23:18:44.658Z,102941.19
2022-12-01T23:21:12.171Z,102945.53
2022-12-01T23:23:39.311Z,102940.31
2022-12-01T23:26:08.836Z,102941.06
2022-12-01T23:28:39.036Z,102942.91
2022-12-01T23:31:06.222Z,102943.72
2022-12-01T23:33:35.078Z,102934.91
2022-12-01T23:36:37.555Z,102938.53
2022-12-01T23:39:12.122Z,102938.38
2022-12-01T23:41:45.083Z,102939.34
2022-12-01T23:44:30.905Z,102936.59
2022-12-01T23:46:59.202Z,102936.59
2022-12-01T23:49:31.164Z,102935.72
2022-12-01T23:52:02.181Z,102930.44
2022-12-01T23:54:34.726Z,102933.91
2022-12-01T23:57:11.193Z,102929.53
2022-12-01T23:59:38.952Z,102927.81
